sensor_id;sensor_type;location;lat;lon;timestamp;P1;durP1;ratioP1;P2;durP2;ratioP2
8074;SDS011;4080;42.676;23.372;2022-10-19T00:01:40;15.77;;;8.40;;
8074;SDS011;4080;42.676;23.372;2022-10-19T00:04:08;15.27;;;9.27;;
8074;SDS011;4080;42.676;23.372;2022-10-19T00:06:35;15.20;;;8.70;;
8074;SDS011;4080;42.676;23.372;2022-10-19T00:09:03;16.63;;;9.13;;
8074;SDS011;4080;42.676;23.372;2022-10-19T00:11:31;13.77;;;8.83;;
8074;SDS011;4080;42.676;23.372;2022-10-19T00:14:00;15.83;;;9.57;;
8074;SDS011;4080;42.676;23.372;2022-10-19T00:16:29;16.73;;;9.33;;
8074;SDS011;4080;42.676;23.372;2022-10-19T00:18:57;15.97;;;9.13;;
8074;SDS011;4080;42.676;23.372;2022-10-19T00:21:27;13.20;;;8.57;;
8074;SDS011;4080;42.676;23.372;2022-10-19T00:23:54;13.07;;;8.50;;
8074;SDS011;4080;42.676;23.372;2022-10-19T00:26:20;16.00;;;9.20;;
8074;SDS011;4080;42.676;23.372;2022-10-19T00:28:48;15.77;;;8.80;;
8074;SDS011;4080;42.676;23.372;2022-10-19T00:31:15;14.93;;;8.80;;
8074;SDS011;4080;42.676;23.372;2022-10-19T00:33:43;16.50;;;9.20;;
8074;SDS011;4080;42.676;23.372;2022-10-19T00:36:15;14.87;;;9.60;;
8074;SDS011;4080;42.676;23.372;2022-10-19T00:38:45;14.23;;;9.10;;
8074;SDS011;4080;42.676;23.372;2022-10-19T00:41:12;16.07;;;9.40;;
8074;SDS011;4080;42.676;23.372;2022-10-19T00:43:51;15.50;;;9.87;;
8074;SDS011;4080;42.676;23.372;2022-10-19T00:46:19;17.00;;;9.40;;
8074;SDS011;4080;42.676;23.372;2022-10-19T00:48:47;19.40;;;9.80;;
8074;SDS011;4080;42.676;23.372;2022-10-19T00:51:15;15.70;;;9.33;;
8074;SDS011;4080;42.676;23.372;2022-10-19T00:53:42;15.53;;;9.53;;
8074;SDS011;4080;42.676;23.372;2022-10-19T00:56:11;13.90;;;9.00;;
8074;SDS011;4080;42.676;23.372;2022-10-19T00:58:40;15.40;;;8.73;;
8074;SDS011;4080;42.676;23.372;2022-10-19T01:01:08;14.07;;;8.80;;
8074;SDS011;4080;42.676;23.372;2022-10-19T01:03:38;16.53;;;9.20;;
8074;SDS011;4080;42.676;23.372;2022-10-19T01:06:05;15.07;;;8.77;;
8074;SDS011;4080;42.676;23.372;2022-10-19T01:08:33;17.07;;;8.90;;
8074;SDS011;4080;42.676;23.372;2022-10-19T01:11:02;14.10;;;8.13;;
8074;SDS011;4080;42.676;23.372;2022-10-19T01:13:42;11.97;;;7.83;;
8074;SDS011;4080;42.676;23.372;2022-10-19T01:16:16;14.37;;;8.80;;
8074;SDS011;4080;42.676;23.372;2022-10-19T01:18:54;16.03;;;8.97;;
8074;SDS011;4080;42.676;23.372;2022-10-19T01:21:29;14.63;;;8.90;;
8074;SDS011;4080;42.676;23.372;2022-10-19T01:24:15;16.13;;;8.67;;
8074;SDS011;4080;42.676;23.372;2022-10-19T01:30:13;10.93;;;7.93;;
8074;SDS011;4080;42.676;23.372;2022-10-19T01:32:51;13.53;;;8.60;;
8074;SDS011;4080;42.676;23.372;2022-10-19T01:35:24;13.23;;;8.77;;
8074;SDS011;4080;42.676;23.372;2022-10-19T01:37:55;12.23;;;8.23;;
8074;SDS011;4080;42.676;23.372;2022-10-19T01:40:30;11.17;;;7.80;;
8074;SDS011;4080;42.676;23.372;2022-10-19T01:43:07;12.67;;;7.90;;
8074;SDS011;4080;42.676;23.372;2022-10-19T01:45:39;14.17;;;8.00;;
8074;SDS011;4080;42.676;23.372;2022-10-19T01:48:13;12.00;;;7.90;;
8074;SDS011;4080;42.676;23.372;2022-10-19T01:50:42;14.27;;;7.97;;
8074;SDS011;4080;42.676;23.372;2022-10-19T01:53:13;14.40;;;8.13;;
8074;SDS011;4080;42.676;23.372;2022-10-19T01:55:42;14.10;;;7.37;;
8074;SDS011;4080;42.676;23.372;2022-10-19T01:58:15;12.87;;;7.80;;
8074;SDS011;4080;42.676;23.372;2022-10-19T02:00:46;15.77;;;7.63;;
8074;SDS011;4080;42.676;23.372;2022-10-19T02:03:16;17.97;;;10.20;;
8074;SDS011;4080;42.676;23.372;2022-10-19T02:05:44;12.97;;;8.50;;
8074;SDS011;4080;42.676;23.372;2022-10-19T02:08:14;24.37;;;16.17;;
8074;SDS011;4080;42.676;23.372;2022-10-19T02:10:45;15.40;;;9.97;;
8074;SDS011;4080;42.676;23.372;2022-10-19T02:13:13;13.77;;;7.70;;
8074;SDS011;4080;42.676;23.372;2022-10-19T02:15:42;12.17;;;6.80;;
8074;SDS011;4080;42.676;23.372;2022-10-19T02:18:14;8.70;;;6.60;;
8074;SDS011;4080;42.676;23.372;2022-10-19T02:20:45;9.83;;;7.20;;
8074;SDS011;4080;42.676;23.372;2022-10-19T02:23:13;12.23;;;7.57;;
8074;SDS011;4080;42.676;23.372;2022-10-19T02:25:44;12.37;;;7.27;;
8074;SDS011;4080;42.676;23.372;2022-10-19T02:28:10;12.47;;;7.47;;
8074;SDS011;4080;42.676;23.372;2022-10-19T02:30:37;12.07;;;7.20;;
8074;SDS011;4080;42.676;23.372;2022-10-19T02:33:04;15.40;;;8.23;;
8074;SDS011;4080;42.676;23.372;2022-10-19T02:35:33;11.73;;;7.20;;
8074;SDS011;4080;42.676;23.372;2022-10-19T02:38:00;11.03;;;6.87;;
8074;SDS011;4080;42.676;23.372;2022-10-19T02:40:30;10.20;;;7.03;;
8074;SDS011;4080;42.676;23.372;2022-10-19T02:43:00;12.37;;;7.30;;
8074;SDS011;4080;42.676;23.372;2022-10-19T02:45:31;16.30;;;7.67;;
8074;SDS011;4080;42.676;23.372;2022-10-19T02:48:02;12.37;;;7.00;;
8074;SDS011;4080;42.676;23.372;2022-10-19T02:50:32;11.10;;;6.80;;
8074;SDS011;4080;42.676;23.372;2022-10-19T02:52:59;11.83;;;7.00;;
8074;SDS011;4080;42.676;23.372;2022-10-19T02:55:26;10.27;;;6.77;;
8074;SDS011;4080;42.676;23.372;2022-10-19T02:57:54;9.53;;;7.13;;
8074;SDS011;4080;42.676;23.372;2022-10-19T03:00:21;12.87;;;7.27;;
8074;SDS011;4080;42.676;23.372;2022-10-19T03:02:48;10.10;;;7.20;;
8074;SDS011;4080;42.676;23.372;2022-10-19T03:05:15;12.37;;;7.67;;
8074;SDS011;4080;42.676;23.372;2022-10-19T03:07:43;12.07;;;7.37;;
8074;SDS011;4080;42.676;23.372;2022-10-19T03:10:10;10.80;;;7.77;;
8074;SDS011;4080;42.676;23.372;2022-10-19T03:12:36;11.77;;;7.20;;
8074;SDS011;4080;42.676;23.372;2022-10-19T03:15:03;17.73;;;7.60;;
8074;SDS011;4080;42.676;23.372;2022-10-19T03:17:30;12.60;;;7.50;;
8074;SDS011;4080;42.676;23.372;2022-10-19T03:19:57;21.03;;;7.30;;
8074;SDS011;4080;42.676;23.372;2022-10-19T03:22:24;17.57;;;7.70;;
8074;SDS011;4080;42.676;23.372;2022-10-19T03:24:52;73.30;;;40.53;;
8074;SDS011;4080;42.676;23.372;2022-10-19T03:27:19;24.03;;;13.63;;
8074;SDS011;4080;42.676;23.372;2022-10-19T03:29:45;14.13;;;7.73;;
8074;SDS011;4080;42.676;23.372;2022-10-19T03:32:12;11.20;;;8.07;;
8074;SDS011;4080;42.676;23.372;2022-10-19T03:34:39;11.93;;;7.20;;
8074;SDS011;4080;42.676;23.372;2022-10-19T03:37:05;13.23;;;7.57;;
8074;SDS011;4080;42.676;23.372;2022-10-19T03:39:32;8.77;;;6.73;;
8074;SDS011;4080;42.676;23.372;2022-10-19T03:42:01;17.63;;;7.60;;
8074;SDS011;4080;42.676;23.372;2022-10-19T03:44:27;11.87;;;7.03;;
8074;SDS011;4080;42.676;23.372;2022-10-19T03:46:54;10.97;;;6.90;;
8074;SDS011;4080;42.676;23.372;2022-10-19T03:49:21;11.53;;;6.97;;
8074;SDS011;4080;42.676;23.372;2022-10-19T03:51:47;10.87;;;7.03;;
8074;SDS011;4080;42.676;23.372;2022-10-19T03:54:14;14.13;;;7.60;;
8074;SDS011;4080;42.676;23.372;2022-10-19T03:56:42;9.87;;;7.23;;
8074;SDS011;4080;42.676;23.372;2022-10-19T03:59:10;12.27;;;7.47;;
8074;SDS011;4080;42.676;23.372;2022-10-19T04:01:40;14.33;;;7.07;;
8074;SDS011;4080;42.676;23.372;2022-10-19T04:04:09;10.90;;;7.53;;
8074;SDS011;4080;42.676;23.372;2022-10-19T04:06:38;15.13;;;9.87;;
8074;SDS011;4080;42.676;23.372;2022-10-19T04:09:07;17.60;;;11.60;;
8074;SDS011;4080;42.676;23.372;2022-10-19T04:11:36;21.80;;;12.77;;
8074;SDS011;4080;42.676;23.372;2022-10-19T04:14:03;21.47;;;11.80;;
8074;SDS011;4080;42.676;23.372;2022-10-19T04:16:31;18.40;;;9.00;;
8074;SDS011;4080;42.676;23.372;2022-10-19T04:18:58;18.43;;;9.53;;
8074;SDS011;4080;42.676;23.372;2022-10-19T04:21:26;27.87;;;10.23;;
8074;SDS011;4080;42.676;23.372;2022-10-19T04:23:56;15.63;;;9.43;;
8074;SDS011;4080;42.676;23.372;2022-10-19T04:26:24;20.07;;;9.27;;
8074;SDS011;4080;42.676;23.372;2022-10-19T04:28:51;41.67;;;20.13;;
8074;SDS011;4080;42.676;23.372;2022-10-19T04:31:18;45.83;;;25.60;;
8074;SDS011;4080;42.676;23.372;2022-10-19T04:33:46;22.30;;;9.93;;
8074;SDS011;4080;42.676;23.372;2022-10-19T04:36:13;18.93;;;10.63;;
8074;SDS011;4080;42.676;23.372;2022-10-19T04:38:40;21.47;;;11.67;;
8074;SDS011;4080;42.676;23.372;2022-10-19T04:41:07;17.67;;;11.90;;
8074;SDS011;4080;42.676;23.372;2022-10-19T04:43:35;23.30;;;12.80;;
8074;SDS011;4080;42.676;23.372;2022-10-19T04:46:03;23.87;;;12.13;;
8074;SDS011;4080;42.676;23.372;2022-10-19T04:48:31;23.30;;;12.17;;
8074;SDS011;4080;42.676;23.372;2022-10-19T04:51:00;22.83;;;10.83;;
8074;SDS011;4080;42.676;23.372;2022-10-19T04:53:27;25.30;;;11.97;;
8074;SDS011;4080;42.676;23.372;2022-10-19T04:55:54;20.30;;;12.53;;
8074;SDS011;4080;42.676;23.372;2022-10-19T04:58:21;21.13;;;12.50;;
8074;SDS011;4080;42.676;23.372;2022-10-19T05:00:48;33.63;;;14.83;;
8074;SDS011;4080;42.676;23.372;2022-10-19T05:03:15;28.17;;;15.77;;
8074;SDS011;4080;42.676;23.372;2022-10-19T05:05:42;33.23;;;15.53;;
8074;SDS011;4080;42.676;23.372;2022-10-19T05:08:11;32.30;;;13.37;;
8074;SDS011;4080;42.676;23.372;2022-10-19T05:10:37;32.80;;;13.57;;
8074;SDS011;4080;42.676;23.372;2022-10-19T05:13:04;27.83;;;13.90;;
8074;SDS011;4080;42.676;23.372;2022-10-19T05:15:31;28.87;;;14.70;;
8074;SDS011;4080;42.676;23.372;2022-10-19T05:17:58;33.90;;;15.17;;
8074;SDS011;4080;42.676;23.372;2022-10-19T05:20:25;26.67;;;13.23;;
8074;SDS011;4080;42.676;23.372;2022-10-19T05:22:52;35.50;;;14.63;;
8074;SDS011;4080;42.676;23.372;2022-10-19T05:25:20;24.97;;;12.97;;
8074;SDS011;4080;42.676;23.372;2022-10-19T05:27:49;23.23;;;12.00;;
8074;SDS011;4080;42.676;23.372;2022-10-19T05:30:16;32.47;;;12.90;;
8074;SDS011;4080;42.676;23.372;2022-10-19T05:32:43;31.40;;;13.40;;
8074;SDS011;4080;42.676;23.372;2022-10-19T05:35:10;25.23;;;13.50;;
8074;SDS011;4080;42.676;23.372;2022-10-19T05:37:37;24.07;;;12.53;;
8074;SDS011;4080;42.676;23.372;2022-10-19T05:40:04;25.87;;;12.73;;
8074;SDS011;4080;42.676;23.372;2022-10-19T05:42:33;21.53;;;11.87;;
8074;SDS011;4080;42.676;23.372;2022-10-19T05:45:00;22.23;;;13.80;;
8074;SDS011;4080;42.676;23.372;2022-10-19T05:47:27;24.87;;;14.97;;
8074;SDS011;4080;42.676;23.372;2022-10-19T05:49:53;33.93;;;15.30;;
8074;SDS011;4080;42.676;23.372;2022-10-19T05:52:20;29.60;;;18.37;;
8074;SDS011;4080;42.676;23.372;2022-10-19T05:54:47;30.03;;;19.20;;
8074;SDS011;4080;42.676;23.372;2022-10-19T05:57:13;37.30;;;19.67;;
8074;SDS011;4080;42.676;23.372;2022-10-19T05:59:41;39.87;;;18.33;;
8074;SDS011;4080;42.676;23.372;2022-10-19T06:02:09;36.17;;;19.00;;
8074;SDS011;4080;42.676;23.372;2022-10-19T06:04:38;28.60;;;17.53;;
8074;SDS011;4080;42.676;23.372;2022-10-19T06:07:05;30.30;;;17.90;;
8074;SDS011;4080;42.676;23.372;2022-10-19T06:09:31;33.17;;;18.63;;
8074;SDS011;4080;42.676;23.372;2022-10-19T06:12:00;27.63;;;16.77;;
8074;SDS011;4080;42.676;23.372;2022-10-19T06:14:27;22.63;;;15.23;;
8074;SDS011;4080;42.676;23.372;2022-10-19T06:16:55;23.90;;;16.13;;
8074;SDS011;4080;42.676;23.372;2022-10-19T06:19:22;22.70;;;14.47;;
8074;SDS011;4080;42.676;23.372;2022-10-19T06:21:48;25.63;;;14.83;;
8074;SDS011;4080;42.676;23.372;2022-10-19T06:24:15;26.13;;;13.63;;
8074;SDS011;4080;42.676;23.372;2022-10-19T06:26:42;25.67;;;16.67;;
8074;SDS011;4080;42.676;23.372;2022-10-19T06:29:08;25.03;;;17.47;;
8074;SDS011;4080;42.676;23.372;2022-10-19T06:31:35;26.90;;;17.03;;
8074;SDS011;4080;42.676;23.372;2022-10-19T06:34:04;29.00;;;17.60;;
8074;SDS011;4080;42.676;23.372;2022-10-19T06:36:31;38.57;;;19.40;;
8074;SDS011;4080;42.676;23.372;2022-10-19T06:38:58;28.43;;;18.47;;
8074;SDS011;4080;42.676;23.372;2022-10-19T06:41:25;27.60;;;17.93;;
8074;SDS011;4080;42.676;23.372;2022-10-19T06:43:53;31.40;;;17.97;;
8074;SDS011;4080;42.676;23.372;2022-10-19T06:46:21;36.33;;;18.07;;
8074;SDS011;4080;42.676;23.372;2022-10-19T06:48:49;35.40;;;17.87;;
8074;SDS011;4080;42.676;23.372;2022-10-19T06:51:18;29.07;;;17.60;;
8074;SDS011;4080;42.676;23.372;2022-10-19T06:53:45;40.80;;;16.77;;
8074;SDS011;4080;42.676;23.372;2022-10-19T06:56:12;26.63;;;17.23;;
8074;SDS011;4080;42.676;23.372;2022-10-19T06:58:39;25.70;;;16.27;;
8074;SDS011;4080;42.676;23.372;2022-10-19T07:01:06;27.27;;;15.80;;
8074;SDS011;4080;42.676;23.372;2022-10-19T07:03:34;21.27;;;13.57;;
8074;SDS011;4080;42.676;23.372;2022-10-19T07:06:02;23.23;;;13.47;;
8074;SDS011;4080;42.676;23.372;2022-10-19T07:08:32;24.07;;;14.83;;
8074;SDS011;4080;42.676;23.372;2022-10-19T07:11:01;24.53;;;16.23;;
8074;SDS011;4080;42.676;23.372;2022-10-19T07:13:29;23.90;;;15.83;;
8074;SDS011;4080;42.676;23.372;2022-10-19T07:15:56;25.90;;;17.10;;
8074;SDS011;4080;42.676;23.372;2022-10-19T07:18:23;24.67;;;15.03;;
8074;SDS011;4080;42.676;23.372;2022-10-19T07:20:54;24.17;;;14.47;;
8074;SDS011;4080;42.676;23.372;2022-10-19T07:23:22;24.10;;;15.20;;
8074;SDS011;4080;42.676;23.372;2022-10-19T07:25:50;21.63;;;13.23;;
8074;SDS011;4080;42.676;23.372;2022-10-19T07:28:18;20.57;;;14.17;;
8074;SDS011;4080;42.676;23.372;2022-10-19T07:30:46;20.47;;;13.47;;
8074;SDS011;4080;42.676;23.372;2022-10-19T07:33:13;18.13;;;13.23;;
8074;SDS011;4080;42.676;23.372;2022-10-19T07:35:39;21.57;;;13.83;;
8074;SDS011;4080;42.676;23.372;2022-10-19T07:38:06;29.63;;;13.93;;
8074;SDS011;4080;42.676;23.372;2022-10-19T07:40:33;22.23;;;13.90;;
8074;SDS011;4080;42.676;23.372;2022-10-19T07:43:01;25.83;;;14.47;;
8074;SDS011;4080;42.676;23.372;2022-10-19T07:45:28;29.97;;;14.77;;
8074;SDS011;4080;42.676;23.372;2022-10-19T07:47:55;24.03;;;15.60;;
8074;SDS011;4080;42.676;23.372;2022-10-19T07:50:22;32.33;;;16.93;;
8074;SDS011;4080;42.676;23.372;2022-10-19T07:52:50;25.40;;;15.60;;
8074;SDS011;4080;42.676;23.372;2022-10-19T07:55:17;24.80;;;15.43;;
8074;SDS011;4080;42.676;23.372;2022-10-19T07:57:45;23.83;;;14.43;;
8074;SDS011;4080;42.676;23.372;2022-10-19T08:00:14;21.30;;;13.77;;
8074;SDS011;4080;42.676;23.372;2022-10-19T08:02:41;28.07;;;13.57;;
8074;SDS011;4080;42.676;23.372;2022-10-19T08:05:08;23.33;;;14.00;;
8074;SDS011;4080;42.676;23.372;2022-10-19T08:07:35;20.87;;;14.27;;
8074;SDS011;4080;42.676;23.372;2022-10-19T08:10:02;23.63;;;13.50;;
8074;SDS011;4080;42.676;23.372;2022-10-19T08:12:29;22.10;;;13.53;;
8074;SDS011;4080;42.676;23.372;2022-10-19T08:14:56;22.30;;;14.03;;
8074;SDS011;4080;42.676;23.372;2022-10-19T08:17:24;22.73;;;14.20;;
8074;SDS011;4080;42.676;23.372;2022-10-19T08:19:50;21.77;;;13.50;;
8074;SDS011;4080;42.676;23.372;2022-10-19T08:22:17;27.67;;;13.93;;
8074;SDS011;4080;42.676;23.372;2022-10-19T08:24:44;20.03;;;13.43;;
8074;SDS011;4080;42.676;23.372;2022-10-19T08:27:11;23.40;;;14.33;;
8074;SDS011;4080;42.676;23.372;2022-10-19T08:29:38;27.33;;;15.20;;
8074;SDS011;4080;42.676;23.372;2022-10-19T08:32:05;25.27;;;14.80;;
8074;SDS011;4080;42.676;23.372;2022-10-19T08:34:33;26.77;;;14.47;;
8074;SDS011;4080;42.676;23.372;2022-10-19T08:37:00;24.20;;;14.30;;
8074;SDS011;4080;42.676;23.372;2022-10-19T08:39:27;27.23;;;15.43;;
8074;SDS011;4080;42.676;23.372;2022-10-19T08:41:59;23.97;;;14.57;;
8074;SDS011;4080;42.676;23.372;2022-10-19T08:47:51;23.10;;;13.97;;
8074;SDS011;4080;42.676;23.372;2022-10-19T08:50:26;28.87;;;13.87;;
8074;SDS011;4080;42.676;23.372;2022-10-19T08:52:59;23.03;;;12.40;;
8074;SDS011;4080;42.676;23.372;2022-10-19T08:55:32;22.50;;;11.67;;
8074;SDS011;4080;42.676;23.372;2022-10-19T08:58:13;20.27;;;12.00;;
8074;SDS011;4080;42.676;23.372;2022-10-19T09:00:54;17.77;;;10.80;;
8074;SDS011;4080;42.676;23.372;2022-10-19T09:03:30;18.47;;;10.87;;
8074;SDS011;4080;42.676;23.372;2022-10-19T09:06:07;13.83;;;9.73;;
8074;SDS011;4080;42.676;23.372;2022-10-19T09:08:44;13.70;;;7.90;;
8074;SDS011;4080;42.676;23.372;2022-10-19T09:11:11;11.30;;;7.77;;
8074;SDS011;4080;42.676;23.372;2022-10-19T09:13:39;12.97;;;6.53;;
8074;SDS011;4080;42.676;23.372;2022-10-19T09:16:09;8.93;;;5.50;;
8074;SDS011;4080;42.676;23.372;2022-10-19T09:18:38;10.63;;;5.70;;
8074;SDS011;4080;42.676;23.372;2022-10-19T09:21:09;8.77;;;5.73;;
8074;SDS011;4080;42.676;23.372;2022-10-19T09:23:41;9.53;;;5.33;;
8074;SDS011;4080;42.676;23.372;2022-10-19T09:26:16;9.43;;;5.50;;
8074;SDS011;4080;42.676;23.372;2022-10-19T09:28:45;9.27;;;5.17;;
8074;SDS011;4080;42.676;23.372;2022-10-19T09:31:19;8.83;;;4.70;;
8074;SDS011;4080;42.676;23.372;2022-10-19T09:33:51;7.13;;;5.20;;
8074;SDS011;4080;42.676;23.372;2022-10-19T09:36:23;6.90;;;5.03;;
8074;SDS011;4080;42.676;23.372;2022-10-19T09:38:58;8.30;;;4.80;;
8074;SDS011;4080;42.676;23.372;2022-10-19T09:41:25;6.40;;;4.67;;
8074;SDS011;4080;42.676;23.372;2022-10-19T09:43:52;7.80;;;5.00;;
8074;SDS011;4080;42.676;23.372;2022-10-19T09:46:28;6.53;;;5.03;;
8074;SDS011;4080;42.676;23.372;2022-10-19T09:49:02;9.30;;;4.83;;
8074;SDS011;4080;42.676;23.372;2022-10-19T09:51:39;9.60;;;4.80;;
8074;SDS011;4080;42.676;23.372;2022-10-19T09:54:21;7.17;;;4.67;;
8074;SDS011;4080;42.676;23.372;2022-10-19T09:56:54;10.17;;;4.70;;
8074;SDS011;4080;42.676;23.372;2022-10-19T09:59:22;10.87;;;5.03;;
8074;SDS011;4080;42.676;23.372;2022-10-19T10:01:58;7.17;;;5.13;;
8074;SDS011;4080;42.676;23.372;2022-10-19T10:04:28;9.53;;;4.97;;
8074;SDS011;4080;42.676;23.372;2022-10-19T10:06:56;8.73;;;4.70;;
8074;SDS011;4080;42.676;23.372;2022-10-19T10:09:25;10.13;;;4.90;;
8074;SDS011;4080;42.676;23.372;2022-10-19T10:11:55;7.70;;;4.73;;
8074;SDS011;4080;42.676;23.372;2022-10-19T10:14:26;5.03;;;4.10;;
8074;SDS011;4080;42.676;23.372;2022-10-19T10:16:54;7.83;;;4.50;;
8074;SDS011;4080;42.676;23.372;2022-10-19T10:19:25;5.73;;;3.90;;
8074;SDS011;4080;42.676;23.372;2022-10-19T10:21:54;8.18;;;5.10;;
8074;SDS011;4080;42.676;23.372;2022-10-19T10:24:23;7.83;;;4.27;;
8074;SDS011;4080;42.676;23.372;2022-10-19T10:26:52;7.33;;;4.27;;
8074;SDS011;4080;42.676;23.372;2022-10-19T10:29:21;6.03;;;4.33;;
8074;SDS011;4080;42.676;23.372;2022-10-19T10:31:50;10.20;;;4.47;;
8074;SDS011;4080;42.676;23.372;2022-10-19T10:34:25;8.80;;;4.47;;
8074;SDS011;4080;42.676;23.372;2022-10-19T10:36:57;5.53;;;4.10;;
8074;SDS011;4080;42.676;23.372;2022-10-19T10:39:26;8.53;;;4.97;;
8074;SDS011;4080;42.676;23.372;2022-10-19T10:41:54;5.70;;;4.63;;
8074;SDS011;4080;42.676;23.372;2022-10-19T10:44:25;5.90;;;4.47;;
8074;SDS011;4080;42.676;23.372;2022-10-19T10:46:55;6.70;;;4.00;;
8074;SDS011;4080;42.676;23.372;2022-10-19T10:49:24;7.00;;;4.50;;
8074;SDS011;4080;42.676;23.372;2022-10-19T10:51:54;7.40;;;4.63;;
8074;SDS011;4080;42.676;23.372;2022-10-19T10:54:23;8.60;;;4.30;;
8074;SDS011;4080;42.676;23.372;2022-10-19T10:57:01;6.50;;;4.20;;
8074;SDS011;4080;42.676;23.372;2022-10-19T10:59:36;8.33;;;4.57;;
8074;SDS011;4080;42.676;23.372;2022-10-19T11:05:12;6.10;;;4.33;;
8074;SDS011;4080;42.676;23.372;2022-10-19T11:07:43;8.27;;;4.63;;
8074;SDS011;4080;42.676;23.372;2022-10-19T11:10:15;8.83;;;4.73;;
8074;SDS011;4080;42.676;23.372;2022-10-19T11:12:50;6.00;;;4.60;;
8074;SDS011;4080;42.676;23.372;2022-10-19T11:15:24;7.60;;;4.50;;
8074;SDS011;4080;42.676;23.372;2022-10-19T11:17:59;6.93;;;4.23;;
8074;SDS011;4080;42.676;23.372;2022-10-19T11:20:38;4.37;;;3.80;;
8074;SDS011;4080;42.676;23.372;2022-10-19T11:23:12;5.40;;;3.80;;
8074;SDS011;4080;42.676;23.372;2022-10-19T11:25:44;7.67;;;5.73;;
8074;SDS011;4080;42.676;23.372;2022-10-19T11:28:27;5.60;;;3.80;;
8074;SDS011;4080;42.676;23.372;2022-10-19T11:31:09;9.00;;;4.20;;
8074;SDS011;4080;42.676;23.372;2022-10-19T11:33:44;8.83;;;3.93;;
8074;SDS011;4080;42.676;23.372;2022-10-19T11:36:27;7.00;;;3.97;;
8074;SDS011;4080;42.676;23.372;2022-10-19T11:39:10;9.13;;;3.80;;
8074;SDS011;4080;42.676;23.372;2022-10-19T11:41:48;6.80;;;4.03;;
8074;SDS011;4080;42.676;23.372;2022-10-19T11:44:27;5.23;;;3.70;;
8074;SDS011;4080;42.676;23.372;2022-10-19T11:47:08;7.33;;;3.50;;
8074;SDS011;4080;42.676;23.372;2022-10-19T11:49:57;11.27;;;3.80;;
8074;SDS011;4080;42.676;23.372;2022-10-19T11:52:37;5.90;;;3.60;;
8074;SDS011;4080;42.676;23.372;2022-10-19T11:55:13;6.40;;;3.47;;
8074;SDS011;4080;42.676;23.372;2022-10-19T11:57:49;8.57;;;3.50;;
8074;SDS011;4080;42.676;23.372;2022-10-19T12:00:21;6.53;;;3.80;;
8074;SDS011;4080;42.676;23.372;2022-10-19T12:03:01;11.43;;;4.00;;
8074;SDS011;4080;42.676;23.372;2022-10-19T12:05:44;5.77;;;3.60;;
8074;SDS011;4080;42.676;23.372;2022-10-19T12:08:31;8.90;;;3.87;;
8074;SDS011;4080;42.676;23.372;2022-10-19T12:11:20;6.90;;;3.40;;
8074;SDS011;4080;42.676;23.372;2022-10-19T12:13:54;8.27;;;4.03;;
8074;SDS011;4080;42.676;23.372;2022-10-19T12:16:27;8.60;;;3.87;;
8074;SDS011;4080;42.676;23.372;2022-10-19T12:19:05;4.60;;;3.43;;
8074;SDS011;4080;42.676;23.372;2022-10-19T12:21:38;7.27;;;3.40;;
8074;SDS011;4080;42.676;23.372;2022-10-19T12:24:10;9.53;;;3.40;;
8074;SDS011;4080;42.676;23.372;2022-10-19T12:26:40;6.07;;;3.30;;
8074;SDS011;4080;42.676;23.372;2022-10-19T12:29:11;5.90;;;3.30;;
8074;SDS011;4080;42.676;23.372;2022-10-19T12:31:41;4.07;;;3.30;;
8074;SDS011;4080;42.676;23.372;2022-10-19T12:34:12;5.87;;;3.60;;
8074;SDS011;4080;42.676;23.372;2022-10-19T12:36:48;9.27;;;3.80;;
8074;SDS011;4080;42.676;23.372;2022-10-19T12:39:22;5.83;;;3.67;;
8074;SDS011;4080;42.676;23.372;2022-10-19T12:41:58;5.53;;;3.57;;
8074;SDS011;4080;42.676;23.372;2022-10-19T12:44:53;4.77;;;3.77;;
8074;SDS011;4080;42.676;23.372;2022-10-19T12:47:31;4.57;;;3.90;;
8074;SDS011;4080;42.676;23.372;2022-10-19T12:49:58;8.03;;;4.07;;
8074;SDS011;4080;42.676;23.372;2022-10-19T12:52:35;5.43;;;3.90;;
8074;SDS011;4080;42.676;23.372;2022-10-19T12:55:24;6.93;;;4.10;;
8074;SDS011;4080;42.676;23.372;2022-10-19T12:57:56;7.23;;;4.73;;
8074;SDS011;4080;42.676;23.372;2022-10-19T13:00:27;5.17;;;3.93;;
8074;SDS011;4080;42.676;23.372;2022-10-19T13:02:58;5.67;;;4.20;;
8074;SDS011;4080;42.676;23.372;2022-10-19T13:05:28;8.20;;;4.10;;
8074;SDS011;4080;42.676;23.372;2022-10-19T13:07:57;5.43;;;3.90;;
8074;SDS011;4080;42.676;23.372;2022-10-19T13:10:26;7.70;;;4.10;;
8074;SDS011;4080;42.676;23.372;2022-10-19T13:12:54;5.40;;;4.10;;
8074;SDS011;4080;42.676;23.372;2022-10-19T13:21:47;10.30;;;4.27;;
8074;SDS011;4080;42.676;23.372;2022-10-19T13:24:30;7.37;;;4.17;;
8074;SDS011;4080;42.676;23.372;2022-10-19T13:29:51;7.50;;;4.17;;
8074;SDS011;4080;42.676;23.372;2022-10-19T13:32:31;5.90;;;4.40;;
8074;SDS011;4080;42.676;23.372;2022-10-19T13:35:19;5.70;;;4.00;;
8074;SDS011;4080;42.676;23.372;2022-10-19T13:43:49;6.43;;;4.10;;
8074;SDS011;4080;42.676;23.372;2022-10-19T13:46:21;5.77;;;3.70;;
8074;SDS011;4080;42.676;23.372;2022-10-19T13:49:20;8.17;;;4.10;;
8074;SDS011;4080;42.676;23.372;2022-10-19T13:55:14;5.70;;;4.00;;
8074;SDS011;4080;42.676;23.372;2022-10-19T13:57:57;7.00;;;4.63;;
8074;SDS011;4080;42.676;23.372;2022-10-19T14:00:44;8.97;;;4.00;;
8074;SDS011;4080;42.676;23.372;2022-10-19T14:03:24;6.53;;;4.27;;
8074;SDS011;4080;42.676;23.372;2022-10-19T14:06:07;8.13;;;5.00;;
8074;SDS011;4080;42.676;23.372;2022-10-19T14:08:53;7.33;;;4.13;;
8074;SDS011;4080;42.676;23.372;2022-10-19T14:11:32;6.80;;;4.17;;
8074;SDS011;4080;42.676;23.372;2022-10-19T14:16:53;8.27;;;4.37;;
8074;SDS011;4080;42.676;23.372;2022-10-19T14:19:22;8.10;;;4.67;;
8074;SDS011;4080;42.676;23.372;2022-10-19T14:21:52;7.27;;;4.40;;
8074;SDS011;4080;42.676;23.372;2022-10-19T14:24:20;10.30;;;4.70;;
8074;SDS011;4080;42.676;23.372;2022-10-19T14:26:53;11.10;;;4.23;;
8074;SDS011;4080;42.676;23.372;2022-10-19T14:29:21;11.30;;;4.67;;
8074;SDS011;4080;42.676;23.372;2022-10-19T14:31:48;8.03;;;4.60;;
8074;SDS011;4080;42.676;23.372;2022-10-19T14:34:14;8.00;;;5.23;;
8074;SDS011;4080;42.676;23.372;2022-10-19T14:36:42;5.93;;;4.33;;
8074;SDS011;4080;42.676;23.372;2022-10-19T14:39:20;12.17;;;5.23;;
8074;SDS011;4080;42.676;23.372;2022-10-19T14:41:50;8.80;;;4.93;;
8074;SDS011;4080;42.676;23.372;2022-10-19T14:44:29;8.33;;;5.30;;
8074;SDS011;4080;42.676;23.372;2022-10-19T14:47:01;15.13;;;5.07;;
8074;SDS011;4080;42.676;23.372;2022-10-19T14:49:41;8.80;;;5.27;;
8074;SDS011;4080;42.676;23.372;2022-10-19T14:52:07;6.93;;;4.47;;
8074;SDS011;4080;42.676;23.372;2022-10-19T14:54:39;8.83;;;5.07;;
8074;SDS011;4080;42.676;23.372;2022-10-19T14:57:11;6.43;;;4.87;;
8074;SDS011;4080;42.676;23.372;2022-10-19T14:59:42;7.20;;;4.67;;
8074;SDS011;4080;42.676;23.372;2022-10-19T15:02:13;6.20;;;5.00;;
8074;SDS011;4080;42.676;23.372;2022-10-19T15:04:44;8.90;;;4.40;;
8074;SDS011;4080;42.676;23.372;2022-10-19T15:07:15;7.70;;;4.67;;
8074;SDS011;4080;42.676;23.372;2022-10-19T15:09:49;7.53;;;5.33;;
8074;SDS011;4080;42.676;23.372;2022-10-19T15:12:22;8.60;;;5.10;;
8074;SDS011;4080;42.676;23.372;2022-10-19T15:14:53;11.47;;;5.87;;
8074;SDS011;4080;42.676;23.372;2022-10-19T15:17:24;7.03;;;5.20;;
8074;SDS011;4080;42.676;23.372;2022-10-19T15:19:54;9.40;;;5.30;;
8074;SDS011;4080;42.676;23.372;2022-10-19T15:22:24;13.67;;;6.00;;
8074;SDS011;4080;42.676;23.372;2022-10-19T15:25:20;12.77;;;5.50;;
8074;SDS011;4080;42.676;23.372;2022-10-19T15:27:51;9.00;;;5.30;;
8074;SDS011;4080;42.676;23.372;2022-10-19T15:30:22;13.73;;;5.80;;
8074;SDS011;4080;42.676;23.372;2022-10-19T15:32:53;7.73;;;5.30;;
8074;SDS011;4080;42.676;23.372;2022-10-19T15:35:24;10.37;;;5.20;;
8074;SDS011;4080;42.676;23.372;2022-10-19T15:37:58;13.93;;;6.00;;
8074;SDS011;4080;42.676;23.372;2022-10-19T15:40:28;12.57;;;6.43;;